X  Luk Metar data     EKYT Aalborg Airport
Temperatur
14°C Temperatur
4°C Dugpunkt
51% Fugtighed



Vind
7 M/S
15 MPT
24 KM/T
13 KNOB



90°
Ø
Nuværende forhold

Klart Klart
Tryk 1023.92 (hPa) - 30.24 (inHg)
Sigt 6.2 (mil) - 10 (km)
Lufthavn
Lufthavnskode EKYT

Lokation: Aalborg Airport
Afstand: 54 (km)

Metar:
EKYT 170836Z 09013KT CAVOK 14/04 Q1024

Tid: 17-05-2022 10:36 CEST